sensor_id;sensor_type;location;lat;lon;timestamp;temperature;humidity
18894;DHT22;9579;49.488;8.226;2024-01-27T00:02:28;6.80;99.90
18894;DHT22;9579;49.488;8.226;2024-01-27T00:05:16;6.90;99.90
18894;DHT22;9579;49.488;8.226;2024-01-27T00:08:03;6.80;99.90
18894;DHT22;9579;49.488;8.226;2024-01-27T00:10:50;6.90;99.90
18894;DHT22;9579;49.488;8.226;2024-01-27T00:13:38;6.90;99.90
18894;DHT22;9579;49.488;8.226;2024-01-27T00:16:25;6.90;99.90
18894;DHT22;9579;49.488;8.226;2024-01-27T00:19:13;7.00;99.90
18894;DHT22;9579;49.488;8.226;2024-01-27T00:22:00;7.20;99.90
18894;DHT22;9579;49.488;8.226;2024-01-27T00:24:48;7.10;99.90
18894;DHT22;9579;49.488;8.226;2024-01-27T00:27:36;7.10;99.90
18894;DHT22;9579;49.488;8.226;2024-01-27T00:30:24;7.10;99.90
18894;DHT22;9579;49.488;8.226;2024-01-27T00:33:12;7.10;99.90
18894;DHT22;9579;49.488;8.226;2024-01-27T00:35:59;7.30;99.90
18894;DHT22;9579;49.488;8.226;2024-01-27T00:38:46;7.00;99.90
18894;DHT22;9579;49.488;8.226;2024-01-27T00:41:33;7.00;99.90
18894;DHT22;9579;49.488;8.226;2024-01-27T00:44:20;7.20;99.90
18894;DHT22;9579;49.488;8.226;2024-01-27T00:47:09;7.10;99.90
18894;DHT22;9579;49.488;8.226;2024-01-27T00:49:56;7.10;99.90
18894;DHT22;9579;49.488;8.226;2024-01-27T00:52:44;7.30;99.90
18894;DHT22;9579;49.488;8.226;2024-01-27T00:55:31;7.00;99.90
18894;DHT22;9579;49.488;8.226;2024-01-27T00:58:18;6.90;99.90
18894;DHT22;9579;49.488;8.226;2024-01-27T01:01:05;6.80;99.90
18894;DHT22;9579;49.488;8.226;2024-01-27T01:03:53;6.70;99.90
18894;DHT22;9579;49.488;8.226;2024-01-27T01:06:40;6.60;99.90
18894;DHT22;9579;49.488;8.226;2024-01-27T01:09:27;6.60;99.90
18894;DHT22;9579;49.488;8.226;2024-01-27T01:12:15;6.80;99.90
18894;DHT22;9579;49.488;8.226;2024-01-27T01:15:02;6.90;99.90
18894;DHT22;9579;49.488;8.226;2024-01-27T01:17:49;6.90;99.90
18894;DHT22;9579;49.488;8.226;2024-01-27T01:20:37;6.90;99.90
18894;DHT22;9579;49.488;8.226;2024-01-27T01:23:25;6.80;99.90
18894;DHT22;9579;49.488;8.226;2024-01-27T01:26:12;6.70;99.90
18894;DHT22;9579;49.488;8.226;2024-01-27T01:28:59;6.60;99.90
18894;DHT22;9579;49.488;8.226;2024-01-27T01:31:46;6.60;99.90
18894;DHT22;9579;49.488;8.226;2024-01-27T01:34:33;6.60;99.90
18894;DHT22;9579;49.488;8.226;2024-01-27T01:37:21;6.50;99.90
18894;DHT22;9579;49.488;8.226;2024-01-27T01:40:09;6.50;99.90
18894;DHT22;9579;49.488;8.226;2024-01-27T01:42:56;6.50;99.90
18894;DHT22;9579;49.488;8.226;2024-01-27T01:45:45;6.40;99.90
18894;DHT22;9579;49.488;8.226;2024-01-27T01:48:32;6.30;99.90
18894;DHT22;9579;49.488;8.226;2024-01-27T01:51:19;6.20;99.90
18894;DHT22;9579;49.488;8.226;2024-01-27T01:54:07;6.50;99.90
18894;DHT22;9579;49.488;8.226;2024-01-27T01:56:55;6.10;99.90
18894;DHT22;9579;49.488;8.226;2024-01-27T01:59:42;6.00;99.90
18894;DHT22;9579;49.488;8.226;2024-01-27T02:02:30;5.90;99.90
18894;DHT22;9579;49.488;8.226;2024-01-27T02:05:17;5.90;99.90
18894;DHT22;9579;49.488;8.226;2024-01-27T02:08:04;6.00;99.90
18894;DHT22;9579;49.488;8.226;2024-01-27T02:10:53;5.80;99.90
18894;DHT22;9579;49.488;8.226;2024-01-27T02:13:40;5.70;99.90
18894;DHT22;9579;49.488;8.226;2024-01-27T02:16:27;5.60;99.90
18894;DHT22;9579;49.488;8.226;2024-01-27T02:19:14;5.40;99.90
18894;DHT22;9579;49.488;8.226;2024-01-27T02:22:02;5.80;99.90
18894;DHT22;9579;49.488;8.226;2024-01-27T02:24:50;5.30;99.90
18894;DHT22;9579;49.488;8.226;2024-01-27T02:27:37;5.50;99.90
18894;DHT22;9579;49.488;8.226;2024-01-27T02:30:24;5.30;99.90
18894;DHT22;9579;49.488;8.226;2024-01-27T02:33:12;5.30;99.90
18894;DHT22;9579;49.488;8.226;2024-01-27T02:35:59;5.30;99.90
18894;DHT22;9579;49.488;8.226;2024-01-27T02:38:46;5.40;99.90
18894;DHT22;9579;49.488;8.226;2024-01-27T02:41:34;5.40;99.90
18894;DHT22;9579;49.488;8.226;2024-01-27T02:44:24;5.50;99.90
18894;DHT22;9579;49.488;8.226;2024-01-27T02:47:11;5.60;99.90
18894;DHT22;9579;49.488;8.226;2024-01-27T02:49:58;5.50;99.90
18894;DHT22;9579;49.488;8.226;2024-01-27T02:52:45;5.50;99.90
18894;DHT22;9579;49.488;8.226;2024-01-27T02:55:32;5.50;99.90
18894;DHT22;9579;49.488;8.226;2024-01-27T02:58:20;5.40;99.90
18894;DHT22;9579;49.488;8.226;2024-01-27T03:01:08;5.40;99.90
18894;DHT22;9579;49.488;8.226;2024-01-27T03:03:55;5.30;99.90
18894;DHT22;9579;49.488;8.226;2024-01-27T03:06:42;5.60;99.90
18894;DHT22;9579;49.488;8.226;2024-01-27T03:09:29;5.30;99.90
18894;DHT22;9579;49.488;8.226;2024-01-27T03:12:16;5.50;99.90
18894;DHT22;9579;49.488;8.226;2024-01-27T03:15:05;5.10;99.90
18894;DHT22;9579;49.488;8.226;2024-01-27T03:17:53;5.10;99.90
18894;DHT22;9579;49.488;8.226;2024-01-27T03:20:41;5.00;99.90
18894;DHT22;9579;49.488;8.226;2024-01-27T03:23:28;4.90;99.90
18894;DHT22;9579;49.488;8.226;2024-01-27T03:26:15;4.80;99.90
18894;DHT22;9579;49.488;8.226;2024-01-27T03:29:02;4.80;99.90
18894;DHT22;9579;49.488;8.226;2024-01-27T03:31:50;4.80;99.90
18894;DHT22;9579;49.488;8.226;2024-01-27T03:34:43;4.80;99.90
18894;DHT22;9579;49.488;8.226;2024-01-27T03:37:30;4.90;99.90
18894;DHT22;9579;49.488;8.226;2024-01-27T03:40:17;4.80;99.90
18894;DHT22;9579;49.488;8.226;2024-01-27T03:43:04;4.80;99.90
18894;DHT22;9579;49.488;8.226;2024-01-27T03:45:51;4.80;99.90
18894;DHT22;9579;49.488;8.226;2024-01-27T03:48:39;4.80;99.90
18894;DHT22;9579;49.488;8.226;2024-01-27T03:51:26;4.80;99.90
18894;DHT22;9579;49.488;8.226;2024-01-27T03:54:14;4.70;99.90
18894;DHT22;9579;49.488;8.226;2024-01-27T03:57:01;4.60;99.90
18894;DHT22;9579;49.488;8.226;2024-01-27T03:59:48;4.60;99.90
18894;DHT22;9579;49.488;8.226;2024-01-27T04:02:35;4.60;99.90
18894;DHT22;9579;49.488;8.226;2024-01-27T04:05:24;4.80;99.90
18894;DHT22;9579;49.488;8.226;2024-01-27T04:08:11;4.50;99.90
18894;DHT22;9579;49.488;8.226;2024-01-27T04:10:58;4.50;99.90
18894;DHT22;9579;49.488;8.226;2024-01-27T04:13:45;4.40;99.90
18894;DHT22;9579;49.488;8.226;2024-01-27T04:16:32;4.30;99.90
18894;DHT22;9579;49.488;8.226;2024-01-27T04:19:19;4.20;99.90
18894;DHT22;9579;49.488;8.226;2024-01-27T04:22:07;4.30;99.90
18894;DHT22;9579;49.488;8.226;2024-01-27T04:24:54;4.40;99.90
18894;DHT22;9579;49.488;8.226;2024-01-27T04:27:41;4.30;99.90
18894;DHT22;9579;49.488;8.226;2024-01-27T04:30:29;4.40;99.90
18894;DHT22;9579;49.488;8.226;2024-01-27T04:33:16;4.50;99.90
18894;DHT22;9579;49.488;8.226;2024-01-27T04:36:03;4.50;99.90
18894;DHT22;9579;49.488;8.226;2024-01-27T04:38:54;4.50;99.90
18894;DHT22;9579;49.488;8.226;2024-01-27T04:41:41;4.60;99.90
18894;DHT22;9579;49.488;8.226;2024-01-27T04:44:29;4.60;99.90
18894;DHT22;9579;49.488;8.226;2024-01-27T04:47:16;4.60;99.90
18894;DHT22;9579;49.488;8.226;2024-01-27T04:50:04;4.50;99.90
18894;DHT22;9579;49.488;8.226;2024-01-27T04:52:51;4.50;99.90
18894;DHT22;9579;49.488;8.226;2024-01-27T04:55:39;4.50;99.90
18894;DHT22;9579;49.488;8.226;2024-01-27T04:58:26;4.50;99.90
18894;DHT22;9579;49.488;8.226;2024-01-27T05:01:13;4.50;99.90
18894;DHT22;9579;49.488;8.226;2024-01-27T05:04:00;4.50;99.90
18894;DHT22;9579;49.488;8.226;2024-01-27T05:06:47;4.50;99.90
18894;DHT22;9579;49.488;8.226;2024-01-27T05:09:35;4.50;99.90
18894;DHT22;9579;49.488;8.226;2024-01-27T05:12:23;4.40;99.90
18894;DHT22;9579;49.488;8.226;2024-01-27T05:15:10;4.30;99.90
18894;DHT22;9579;49.488;8.226;2024-01-27T05:17:57;4.50;99.90
18894;DHT22;9579;49.488;8.226;2024-01-27T05:20:45;4.60;99.90
18894;DHT22;9579;49.488;8.226;2024-01-27T05:23:32;4.50;99.90
18894;DHT22;9579;49.488;8.226;2024-01-27T05:26:19;4.50;99.90
18894;DHT22;9579;49.488;8.226;2024-01-27T05:29:10;4.30;99.90
18894;DHT22;9579;49.488;8.226;2024-01-27T05:31:58;4.30;99.90
18894;DHT22;9579;49.488;8.226;2024-01-27T05:34:45;4.30;99.90
18894;DHT22;9579;49.488;8.226;2024-01-27T05:37:32;4.40;99.90
18894;DHT22;9579;49.488;8.226;2024-01-27T05:40:26;4.50;99.90
18894;DHT22;9579;49.488;8.226;2024-01-27T05:43:16;4.40;99.90
18894;DHT22;9579;49.488;8.226;2024-01-27T05:46:05;4.30;99.90
18894;DHT22;9579;49.488;8.226;2024-01-27T05:48:52;4.50;99.90
18894;DHT22;9579;49.488;8.226;2024-01-27T05:51:43;4.20;99.90
18894;DHT22;9579;49.488;8.226;2024-01-27T05:54:30;4.10;99.90
18894;DHT22;9579;49.488;8.226;2024-01-27T05:57:17;4.20;99.90
18894;DHT22;9579;49.488;8.226;2024-01-27T06:00:06;4.40;99.90
18894;DHT22;9579;49.488;8.226;2024-01-27T06:02:56;4.30;99.90
18894;DHT22;9579;49.488;8.226;2024-01-27T06:05:43;4.30;99.90
18894;DHT22;9579;49.488;8.226;2024-01-27T06:08:30;4.30;99.90
18894;DHT22;9579;49.488;8.226;2024-01-27T06:11:23;4.30;99.90
18894;DHT22;9579;49.488;8.226;2024-01-27T06:14:19;4.30;99.90
18894;DHT22;9579;49.488;8.226;2024-01-27T06:17:18;3.90;99.90
18894;DHT22;9579;49.488;8.226;2024-01-27T06:20:40;4.20;99.90
18894;DHT22;9579;49.488;8.226;2024-01-27T06:23:33;4.20;99.90
18894;DHT22;9579;49.488;8.226;2024-01-27T06:26:23;4.10;99.90
18894;DHT22;9579;49.488;8.226;2024-01-27T06:29:37;4.10;99.90
18894;DHT22;9579;49.488;8.226;2024-01-27T06:32:43;4.00;99.90
18894;DHT22;9579;49.488;8.226;2024-01-27T06:36:03;3.90;99.90
18894;DHT22;9579;49.488;8.226;2024-01-27T06:38:58;3.90;99.90
18894;DHT22;9579;49.488;8.226;2024-01-27T06:41:46;3.70;99.90
18894;DHT22;9579;49.488;8.226;2024-01-27T06:44:36;3.80;99.90
18894;DHT22;9579;49.488;8.226;2024-01-27T06:47:27;3.90;99.90
18894;DHT22;9579;49.488;8.226;2024-01-27T06:50:14;4.00;99.90
18894;DHT22;9579;49.488;8.226;2024-01-27T06:53:03;3.90;99.90
18894;DHT22;9579;49.488;8.226;2024-01-27T07:02:16;4.00;99.90
18894;DHT22;9579;49.488;8.226;2024-01-27T07:05:50;4.00;99.90
18894;DHT22;9579;49.488;8.226;2024-01-27T07:08:31;4.00;99.90
18894;DHT22;9579;49.488;8.226;2024-01-27T07:11:19;3.80;99.90
18894;DHT22;9579;49.488;8.226;2024-01-27T07:14:08;3.60;99.90
18894;DHT22;9579;49.488;8.226;2024-01-27T07:17:05;3.80;99.90
18894;DHT22;9579;49.488;8.226;2024-01-27T07:19:56;3.90;99.90
18894;DHT22;9579;49.488;8.226;2024-01-27T07:22:50;3.60;99.90
18894;DHT22;9579;49.488;8.226;2024-01-27T07:25:38;3.40;99.90
18894;DHT22;9579;49.488;8.226;2024-01-27T07:28:26;3.40;99.90
18894;DHT22;9579;49.488;8.226;2024-01-27T07:31:37;3.60;99.90
18894;DHT22;9579;49.488;8.226;2024-01-27T07:34:34;3.60;99.90
18894;DHT22;9579;49.488;8.226;2024-01-27T07:41:10;3.80;99.90
18894;DHT22;9579;49.488;8.226;2024-01-27T07:44:27;3.70;99.90
18894;DHT22;9579;49.488;8.226;2024-01-27T07:47:18;3.70;99.90
18894;DHT22;9579;49.488;8.226;2024-01-27T07:50:14;3.90;99.90
18894;DHT22;9579;49.488;8.226;2024-01-27T07:53:20;4.00;99.90
18894;DHT22;9579;49.488;8.226;2024-01-27T07:56:43;4.20;99.90
18894;DHT22;9579;49.488;8.226;2024-01-27T07:59:31;4.20;99.90
18894;DHT22;9579;49.488;8.226;2024-01-27T08:02:24;4.30;99.90
18894;DHT22;9579;49.488;8.226;2024-01-27T08:05:17;4.40;99.90
18894;DHT22;9579;49.488;8.226;2024-01-27T08:08:05;4.50;99.90
18894;DHT22;9579;49.488;8.226;2024-01-27T08:10:52;4.60;99.90
18894;DHT22;9579;49.488;8.226;2024-01-27T08:13:41;4.90;99.90
18894;DHT22;9579;49.488;8.226;2024-01-27T08:16:28;5.10;99.90
18894;DHT22;9579;49.488;8.226;2024-01-27T08:19:15;5.40;99.90
18894;DHT22;9579;49.488;8.226;2024-01-27T08:22:06;5.70;99.90
18894;DHT22;9579;49.488;8.226;2024-01-27T08:24:55;6.00;99.90
18894;DHT22;9579;49.488;8.226;2024-01-27T08:27:42;6.10;99.90
18894;DHT22;9579;49.488;8.226;2024-01-27T08:30:30;6.40;99.90
18894;DHT22;9579;49.488;8.226;2024-01-27T08:33:17;6.60;99.90
18894;DHT22;9579;49.488;8.226;2024-01-27T08:36:05;7.10;99.90
18894;DHT22;9579;49.488;8.226;2024-01-27T08:38:53;6.90;99.90
18894;DHT22;9579;49.488;8.226;2024-01-27T08:41:40;7.10;99.90
18894;DHT22;9579;49.488;8.226;2024-01-27T08:44:28;7.30;99.90
18894;DHT22;9579;49.488;8.226;2024-01-27T08:47:32;7.40;99.90
18894;DHT22;9579;49.488;8.226;2024-01-27T08:50:21;7.50;99.90
18894;DHT22;9579;49.488;8.226;2024-01-27T08:53:09;7.60;99.90
18894;DHT22;9579;49.488;8.226;2024-01-27T08:55:57;7.60;99.90
18894;DHT22;9579;49.488;8.226;2024-01-27T08:58:44;7.70;99.90
18894;DHT22;9579;49.488;8.226;2024-01-27T09:01:36;7.60;99.90
18894;DHT22;9579;49.488;8.226;2024-01-27T09:04:42;7.60;99.90
18894;DHT22;9579;49.488;8.226;2024-01-27T09:12:08;8.20;99.90
18894;DHT22;9579;49.488;8.226;2024-01-27T09:19:30;8.60;99.90
18894;DHT22;9579;49.488;8.226;2024-01-27T10:08:33;10.40;99.60
18894;DHT22;9579;49.488;8.226;2024-01-27T10:11:48;10.70;99.10
18894;DHT22;9579;49.488;8.226;2024-01-27T10:14:42;10.60;98.10
18894;DHT22;9579;49.488;8.226;2024-01-27T10:17:30;10.80;99.10
18894;DHT22;9579;49.488;8.226;2024-01-27T10:20:22;10.70;98.20
18894;DHT22;9579;49.488;8.226;2024-01-27T10:23:12;10.90;98.10
18894;DHT22;9579;49.488;8.226;2024-01-27T10:26:01;11.00;97.50
18894;DHT22;9579;49.488;8.226;2024-01-27T10:28:52;11.00;97.20
18894;DHT22;9579;49.488;8.226;2024-01-27T10:31:40;11.00;97.60
18894;DHT22;9579;49.488;8.226;2024-01-27T10:34:27;11.00;97.10
18894;DHT22;9579;49.488;8.226;2024-01-27T10:37:14;10.90;97.10
18894;DHT22;9579;49.488;8.226;2024-01-27T10:40:02;11.00;97.30
18894;DHT22;9579;49.488;8.226;2024-01-27T10:43:00;11.10;97.40
18894;DHT22;9579;49.488;8.226;2024-01-27T10:45:48;11.30;97.70
18894;DHT22;9579;49.488;8.226;2024-01-27T10:48:36;11.40;97.30
18894;DHT22;9579;49.488;8.226;2024-01-27T10:51:28;11.40;96.50
18894;DHT22;9579;49.488;8.226;2024-01-27T10:54:21;11.40;97.00
18894;DHT22;9579;49.488;8.226;2024-01-27T10:57:10;11.30;96.80
18894;DHT22;9579;49.488;8.226;2024-01-27T11:00:00;11.20;96.60
18894;DHT22;9579;49.488;8.226;2024-01-27T11:02:49;11.20;97.10
18894;DHT22;9579;49.488;8.226;2024-01-27T11:05:39;11.30;97.20
18894;DHT22;9579;49.488;8.226;2024-01-27T11:08:27;11.30;96.80
18894;DHT22;9579;49.488;8.226;2024-01-27T11:11:15;11.40;96.80
18894;DHT22;9579;49.488;8.226;2024-01-27T11:14:02;11.40;97.20
18894;DHT22;9579;49.488;8.226;2024-01-27T11:16:55;11.50;96.50
18894;DHT22;9579;49.488;8.226;2024-01-27T11:19:44;11.50;96.90
18894;DHT22;9579;49.488;8.226;2024-01-27T11:22:32;11.70;97.40
18894;DHT22;9579;49.488;8.226;2024-01-27T11:25:22;11.80;96.70
18894;DHT22;9579;49.488;8.226;2024-01-27T11:28:14;12.00;96.60
18894;DHT22;9579;49.488;8.226;2024-01-27T11:31:03;12.20;96.70
18894;DHT22;9579;49.488;8.226;2024-01-27T11:33:52;12.40;95.90
18894;DHT22;9579;49.488;8.226;2024-01-27T11:36:40;12.60;95.60
18894;DHT22;9579;49.488;8.226;2024-01-27T11:39:28;13.00;95.70
18894;DHT22;9579;49.488;8.226;2024-01-27T11:42:16;12.90;94.40
18894;DHT22;9579;49.488;8.226;2024-01-27T11:45:04;12.90;94.80
18894;DHT22;9579;49.488;8.226;2024-01-27T11:47:52;12.90;94.70
18894;DHT22;9579;49.488;8.226;2024-01-27T11:50:40;13.20;94.50
18894;DHT22;9579;49.488;8.226;2024-01-27T11:53:27;13.20;94.70
18894;DHT22;9579;49.488;8.226;2024-01-27T11:56:15;13.30;94.30
18894;DHT22;9579;49.488;8.226;2024-01-27T11:59:02;13.50;93.90
18894;DHT22;9579;49.488;8.226;2024-01-27T12:01:50;13.70;93.20
18894;DHT22;9579;49.488;8.226;2024-01-27T12:04:38;13.80;93.50
18894;DHT22;9579;49.488;8.226;2024-01-27T12:07:27;13.90;93.50
18894;DHT22;9579;49.488;8.226;2024-01-27T12:10:15;14.00;93.60
18894;DHT22;9579;49.488;8.226;2024-01-27T12:13:02;13.80;91.30
18894;DHT22;9579;49.488;8.226;2024-01-27T12:15:50;13.90;92.60
18894;DHT22;9579;49.488;8.226;2024-01-27T12:18:39;13.80;91.60
18894;DHT22;9579;49.488;8.226;2024-01-27T12:21:27;14.00;91.20
18894;DHT22;9579;49.488;8.226;2024-01-27T12:24:26;13.90;92.00
18894;DHT22;9579;49.488;8.226;2024-01-27T12:27:14;14.10;90.20
18894;DHT22;9579;49.488;8.226;2024-01-27T12:33:54;14.20;91.00
18894;DHT22;9579;49.488;8.226;2024-01-27T12:36:58;14.40;90.80
18894;DHT22;9579;49.488;8.226;2024-01-27T12:43:08;14.60;90.90
18894;DHT22;9579;49.488;8.226;2024-01-27T12:45:55;14.70;91.70
18894;DHT22;9579;49.488;8.226;2024-01-27T12:48:43;14.80;91.60
18894;DHT22;9579;49.488;8.226;2024-01-27T12:51:31;15.00;91.40
18894;DHT22;9579;49.488;8.226;2024-01-27T12:54:21;15.40;90.90
18894;DHT22;9579;49.488;8.226;2024-01-27T12:57:10;15.80;90.40
18894;DHT22;9579;49.488;8.226;2024-01-27T12:59:57;16.20;90.50
18894;DHT22;9579;49.488;8.226;2024-01-27T13:02:47;16.50;88.80
18894;DHT22;9579;49.488;8.226;2024-01-27T13:05:34;16.90;87.70
18894;DHT22;9579;49.488;8.226;2024-01-27T13:08:21;17.10;86.90
18894;DHT22;9579;49.488;8.226;2024-01-27T13:11:09;17.20;84.30
18894;DHT22;9579;49.488;8.226;2024-01-27T13:14:00;17.30;84.90
18894;DHT22;9579;49.488;8.226;2024-01-27T13:16:50;17.50;83.00
18894;DHT22;9579;49.488;8.226;2024-01-27T13:19:40;17.60;84.80
18894;DHT22;9579;49.488;8.226;2024-01-27T13:22:27;17.80;84.20
18894;DHT22;9579;49.488;8.226;2024-01-27T13:25:14;17.80;83.50
18894;DHT22;9579;49.488;8.226;2024-01-27T13:28:02;18.40;84.30
18894;DHT22;9579;49.488;8.226;2024-01-27T13:30:51;18.50;81.40
18894;DHT22;9579;49.488;8.226;2024-01-27T13:33:38;18.80;81.40
18894;DHT22;9579;49.488;8.226;2024-01-27T13:36:25;19.20;79.20
18894;DHT22;9579;49.488;8.226;2024-01-27T13:39:12;19.40;77.90
18894;DHT22;9579;49.488;8.226;2024-01-27T13:41:59;19.80;77.30
18894;DHT22;9579;49.488;8.226;2024-01-27T13:44:46;20.10;74.30
18894;DHT22;9579;49.488;8.226;2024-01-27T13:47:35;20.30;75.10
18894;DHT22;9579;49.488;8.226;2024-01-27T13:50:22;20.50;73.70
18894;DHT22;9579;49.488;8.226;2024-01-27T13:53:11;20.50;72.10
18894;DHT22;9579;49.488;8.226;2024-01-27T13:55:58;20.70;72.50
18894;DHT22;9579;49.488;8.226;2024-01-27T13:58:46;20.70;72.10
18894;DHT22;9579;49.488;8.226;2024-01-27T14:01:33;20.90;70.40
18894;DHT22;9579;49.488;8.226;2024-01-27T14:04:21;20.80;70.10
18894;DHT22;9579;49.488;8.226;2024-01-27T14:07:10;21.20;67.90
18894;DHT22;9579;49.488;8.226;2024-01-27T14:09:57;21.60;66.00
18894;DHT22;9579;49.488;8.226;2024-01-27T14:12:44;21.70;65.80
18894;DHT22;9579;49.488;8.226;2024-01-27T14:15:31;21.80;67.40
18894;DHT22;9579;49.488;8.226;2024-01-27T14:18:18;22.40;65.90
18894;DHT22;9579;49.488;8.226;2024-01-27T14:21:08;23.10;64.20
18894;DHT22;9579;49.488;8.226;2024-01-27T14:23:56;24.00;60.30
18894;DHT22;9579;49.488;8.226;2024-01-27T14:26:48;24.70;59.30
18894;DHT22;9579;49.488;8.226;2024-01-27T14:29:35;25.30;58.50
18894;DHT22;9579;49.488;8.226;2024-01-27T14:32:22;26.00;55.90
18894;DHT22;9579;49.488;8.226;2024-01-27T14:35:09;26.40;56.10
18894;DHT22;9579;49.488;8.226;2024-01-27T14:37:58;27.00;54.80
18894;DHT22;9579;49.488;8.226;2024-01-27T14:40:46;27.50;53.30
18894;DHT22;9579;49.488;8.226;2024-01-27T14:43:33;27.90;53.30
18894;DHT22;9579;49.488;8.226;2024-01-27T14:46:22;28.00;52.20
18894;DHT22;9579;49.488;8.226;2024-01-27T14:49:09;27.50;52.10
18894;DHT22;9579;49.488;8.226;2024-01-27T14:51:56;27.10;52.00
18894;DHT22;9579;49.488;8.226;2024-01-27T14:54:45;27.20;52.90
18894;DHT22;9579;49.488;8.226;2024-01-27T14:57:32;27.40;51.40
18894;DHT22;9579;49.488;8.226;2024-01-27T15:00:19;27.80;50.90
18894;DHT22;9579;49.488;8.226;2024-01-27T15:03:06;28.40;49.90
18894;DHT22;9579;49.488;8.226;2024-01-27T15:05:53;28.90;48.80
18894;DHT22;9579;49.488;8.226;2024-01-27T15:08:40;28.60;48.20
18894;DHT22;9579;49.488;8.226;2024-01-27T15:11:31;28.40;48.50
18894;DHT22;9579;49.488;8.226;2024-01-27T15:14:18;28.20;48.30
18894;DHT22;9579;49.488;8.226;2024-01-27T15:17:05;27.80;48.60
18894;DHT22;9579;49.488;8.226;2024-01-27T15:19:53;27.30;49.10
18894;DHT22;9579;49.488;8.226;2024-01-27T15:22:40;26.70;49.80
18894;DHT22;9579;49.488;8.226;2024-01-27T15:25:27;25.30;51.00
18894;DHT22;9579;49.488;8.226;2024-01-27T15:28:16;23.30;54.00
18894;DHT22;9579;49.488;8.226;2024-01-27T15:31:03;21.00;56.00
18894;DHT22;9579;49.488;8.226;2024-01-27T15:33:50;19.20;59.50
18894;DHT22;9579;49.488;8.226;2024-01-27T15:36:37;17.90;62.70
18894;DHT22;9579;49.488;8.226;2024-01-27T15:39:24;16.90;65.00
18894;DHT22;9579;49.488;8.226;2024-01-27T15:42:12;16.20;67.50
18894;DHT22;9579;49.488;8.226;2024-01-27T15:45:01;15.50;69.40
18894;DHT22;9579;49.488;8.226;2024-01-27T15:48:03;14.80;71.30
18894;DHT22;9579;49.488;8.226;2024-01-27T15:50:50;14.20;72.60
18894;DHT22;9579;49.488;8.226;2024-01-27T15:53:38;13.60;75.80
18894;DHT22;9579;49.488;8.226;2024-01-27T15:56:25;13.00;77.60
18894;DHT22;9579;49.488;8.226;2024-01-27T15:59:12;12.80;80.10
18894;DHT22;9579;49.488;8.226;2024-01-27T16:02:01;12.60;81.40
18894;DHT22;9579;49.488;8.226;2024-01-27T16:04:48;12.20;83.00
18894;DHT22;9579;49.488;8.226;2024-01-27T16:07:35;12.10;83.50
18894;DHT22;9579;49.488;8.226;2024-01-27T16:10:22;11.90;84.10
18894;DHT22;9579;49.488;8.226;2024-01-27T16:13:12;11.60;86.10
18894;DHT22;9579;49.488;8.226;2024-01-27T16:16:09;11.40;87.00
18894;DHT22;9579;49.488;8.226;2024-01-27T16:26:36;10.70;90.20
18894;DHT22;9579;49.488;8.226;2024-01-27T16:33:58;10.20;91.10
18894;DHT22;9579;49.488;8.226;2024-01-27T16:37:24;9.70;92.90
18894;DHT22;9579;49.488;8.226;2024-01-27T16:41:03;9.50;93.40
18894;DHT22;9579;49.488;8.226;2024-01-27T16:44:08;9.40;93.50
18894;DHT22;9579;49.488;8.226;2024-01-27T16:47:21;9.20;94.00
18894;DHT22;9579;49.488;8.226;2024-01-27T16:50:40;9.10;93.90
18894;DHT22;9579;49.488;8.226;2024-01-27T16:53:35;8.80;94.10
18894;DHT22;9579;49.488;8.226;2024-01-27T16:56:42;8.70;94.60
18894;DHT22;9579;49.488;8.226;2024-01-27T16:59:33;8.80;94.50
18894;DHT22;9579;49.488;8.226;2024-01-27T17:02:30;8.50;94.70
18894;DHT22;9579;49.488;8.226;2024-01-27T17:05:21;8.40;94.80
18894;DHT22;9579;49.488;8.226;2024-01-27T17:08:09;8.20;94.80
18894;DHT22;9579;49.488;8.226;2024-01-27T17:10:58;8.10;95.30
18894;DHT22;9579;49.488;8.226;2024-01-27T17:13:45;8.00;95.50
18894;DHT22;9579;49.488;8.226;2024-01-27T17:16:34;7.90;95.40
18894;DHT22;9579;49.488;8.226;2024-01-27T17:19:21;7.70;96.10
18894;DHT22;9579;49.488;8.226;2024-01-27T17:22:08;7.70;96.00
18894;DHT22;9579;49.488;8.226;2024-01-27T17:24:56;7.40;96.30
18894;DHT22;9579;49.488;8.226;2024-01-27T17:27:48;7.40;96.60
18894;DHT22;9579;49.488;8.226;2024-01-27T17:30:36;7.50;97.30
18894;DHT22;9579;49.488;8.226;2024-01-27T17:33:23;7.50;97.00
18894;DHT22;9579;49.488;8.226;2024-01-27T17:36:12;7.50;97.10
18894;DHT22;9579;49.488;8.226;2024-01-27T17:38:59;7.50;97.10
18894;DHT22;9579;49.488;8.226;2024-01-27T17:41:46;7.40;97.30
18894;DHT22;9579;49.488;8.226;2024-01-27T17:44:35;7.30;97.30
18894;DHT22;9579;49.488;8.226;2024-01-27T17:47:22;7.20;96.90
18894;DHT22;9579;49.488;8.226;2024-01-27T17:50:10;7.20;97.30
18894;DHT22;9579;49.488;8.226;2024-01-27T17:52:57;7.10;97.60
18894;DHT22;9579;49.488;8.226;2024-01-27T17:55:44;7.10;97.60
18894;DHT22;9579;49.488;8.226;2024-01-27T17:58:31;7.10;97.40
18894;DHT22;9579;49.488;8.226;2024-01-27T18:01:20;6.90;97.60
18894;DHT22;9579;49.488;8.226;2024-01-27T18:04:07;6.90;98.10
18894;DHT22;9579;49.488;8.226;2024-01-27T18:06:54;6.80;98.50
18894;DHT22;9579;49.488;8.226;2024-01-27T18:09:41;6.90;98.40
18894;DHT22;9579;49.488;8.226;2024-01-27T18:12:28;6.80;98.50
18894;DHT22;9579;49.488;8.226;2024-01-27T18:15:15;6.70;98.50
18894;DHT22;9579;49.488;8.226;2024-01-27T18:18:04;6.60;98.30
18894;DHT22;9579;49.488;8.226;2024-01-27T18:20:51;6.40;98.30
18894;DHT22;9579;49.488;8.226;2024-01-27T18:23:38;6.20;99.10
18894;DHT22;9579;49.488;8.226;2024-01-27T18:26:25;6.30;99.30
18894;DHT22;9579;49.488;8.226;2024-01-27T18:29:12;6.20;98.80
18894;DHT22;9579;49.488;8.226;2024-01-27T18:31:59;6.30;99.60
18894;DHT22;9579;49.488;8.226;2024-01-27T18:34:48;6.40;99.60
18894;DHT22;9579;49.488;8.226;2024-01-27T18:37:35;6.40;99.50
18894;DHT22;9579;49.488;8.226;2024-01-27T18:40:22;6.50;99.10
18894;DHT22;9579;49.488;8.226;2024-01-27T18:43:09;6.50;99.10
18894;DHT22;9579;49.488;8.226;2024-01-27T18:45:56;6.60;98.70
18894;DHT22;9579;49.488;8.226;2024-01-27T18:48:46;6.40;99.20
18894;DHT22;9579;49.488;8.226;2024-01-27T18:51:36;6.40;99.00
18894;DHT22;9579;49.488;8.226;2024-01-27T18:54:23;6.50;98.80
18894;DHT22;9579;49.488;8.226;2024-01-27T18:57:10;6.50;98.70
18894;DHT22;9579;49.488;8.226;2024-01-27T18:59:57;6.40;98.50
18894;DHT22;9579;49.488;8.226;2024-01-27T19:02:44;6.30;98.90
18894;DHT22;9579;49.488;8.226;2024-01-27T19:05:31;6.20;99.00
18894;DHT22;9579;49.488;8.226;2024-01-27T19:08:20;6.10;99.50
18894;DHT22;9579;49.488;8.226;2024-01-27T19:11:07;6.00;99.60
18894;DHT22;9579;49.488;8.226;2024-01-27T19:13:54;5.90;99.40
18894;DHT22;9579;49.488;8.226;2024-01-27T19:16:41;5.80;99.90
18894;DHT22;9579;49.488;8.226;2024-01-27T19:19:28;5.80;99.90
18894;DHT22;9579;49.488;8.226;2024-01-27T19:22:15;5.90;99.90
18894;DHT22;9579;49.488;8.226;2024-01-27T19:25:04;5.90;99.90
18894;DHT22;9579;49.488;8.226;2024-01-27T19:27:51;5.90;99.90
18894;DHT22;9579;49.488;8.226;2024-01-27T19:30:38;5.80;99.90
18894;DHT22;9579;49.488;8.226;2024-01-27T19:33:25;5.70;99.90
18894;DHT22;9579;49.488;8.226;2024-01-27T19:36:12;5.90;99.90
18894;DHT22;9579;49.488;8.226;2024-01-27T19:38:59;5.90;99.70
18894;DHT22;9579;49.488;8.226;2024-01-27T19:41:48;5.80;99.90
18894;DHT22;9579;49.488;8.226;2024-01-27T19:44:37;5.80;99.90
18894;DHT22;9579;49.488;8.226;2024-01-27T19:47:24;5.50;99.90